Time;durP1;ratioP1;P1;durP2;ratioP2;P2;SDS_P1;SDS_P2;PMS_P1;PMS_P2;Temp;Humidity;BMP_temperature;BMP_pressure;BME280_temperature;BME280_humidity;BME280_pressure;Samples;Min_cycle;Max_cycle;Signal;HPM_P1;HPM_P2
2022/05/14 00:01:33;;;;;;;2.15;1.00;;;;;;;7.96;100.00;101388.06;5144449;27;20050;-46
2022/05/14 00:03:59;;;;;;;4.07;2.55;;;;;;;7.70;100.00;101387.97;5136154;27;20110;-48
2022/05/14 00:06:27;;;;;;;4.97;1.83;;;;;;;7.48;100.00;101391.84;5149001;27;20503;-49
2022/05/14 00:08:54;;;;;;;3.83;1.33;;;;;;;7.30;100.00;101383.09;5149966;27;20414;-49
2022/05/14 00:14:05;;;;;;;9.27;2.05;;;;;;;7.13;100.00;101401.38;5140328;27;20083;-48
2022/05/14 00:16:33;;;;;;;8.05;1.70;;;;;;;7.08;100.00;101390.41;5144526;27;20029;-47
2022/05/14 00:19:01;;;;;;;6.75;1.17;;;;;;;7.05;100.00;101388.09;5144066;27;20100;-47
2022/05/14 00:21:27;;;;;;;7.15;1.95;;;;;;;7.03;100.00;101395.31;5148213;27;20144;-52
2022/05/14 00:23:52;;;;;;;7.05;3.55;;;;;;;7.03;100.00;101386.56;5140656;27;20110;-47
2022/05/14 00:26:18;;;;;;;4.97;1.50;;;;;;;7.05;100.00;101382.81;5148694;27;20034;-50
2022/05/14 00:28:43;;;;;;;5.40;1.83;;;;;;;7.11;100.00;101379.56;5146118;27;20376;-48
2022/05/14 00:31:09;;;;;;;4.85;1.20;;;;;;;7.06;100.00;101375.72;5146183;27;20022;-49
2022/05/14 00:33:35;;;;;;;7.63;2.22;;;;;;;7.04;100.00;101383.75;5147381;27;20030;-48
2022/05/14 00:36:01;;;;;;;14.40;2.50;;;;;;;7.03;100.00;101379.47;5144469;27;20027;-47
2022/05/14 00:38:26;;;;;;;6.45;1.45;;;;;;;7.11;100.00;101378.75;5146375;27;20431;-46
2022/05/14 00:41:00;;;;;;;10.85;2.60;;;;;;;7.19;100.00;101382.31;5150060;27;20457;-49
2022/05/14 00:43:26;;;;;;;2.90;0.93;;;;;;;7.20;100.00;101380.50;5142900;27;20031;-46
2022/05/14 00:46:15;;;;;;;4.00;2.10;;;;;;;7.30;100.00;101381.28;5148053;27;20030;-48
2022/05/14 00:48:43;;;;;;;9.60;1.75;;;;;;;7.31;100.00;101374.22;5146544;27;20061;-48
2022/05/14 00:51:13;;;;;;;7.18;2.08;;;;;;;7.46;100.00;101380.66;5148936;27;20022;-46
2022/05/14 00:53:44;;;;;;;7.07;2.20;;;;;;;7.43;100.00;101391.47;5143184;27;20035;-47
2022/05/14 00:56:14;;;;;;;4.50;1.93;;;;;;;7.47;100.00;101398.13;5147659;27;20475;-49
2022/05/14 00:58:56;;;;;;;3.72;1.83;;;;;;;7.41;100.00;101394.28;5143420;27;20031;-46
2022/05/14 01:01:21;;;;;;;11.73;3.22;;;;;;;7.33;100.00;101390.69;5139788;27;20103;-50
2022/05/14 01:03:47;;;;;;;9.63;1.75;;;;;;;7.20;100.00;101378.72;5143494;27;20476;-48
2022/05/14 01:06:16;;;;;;;5.13;1.45;;;;;;;7.11;100.00;101382.22;5142845;27;20022;-49
2022/05/14 01:08:42;;;;;;;6.85;1.35;;;;;;;7.04;100.00;101390.84;5143212;27;20125;-48
2022/05/14 01:11:08;;;;;;;3.38;1.27;;;;;;;7.01;100.00;101385.88;5144332;27;20181;-46
2022/05/14 01:13:33;;;;;;;14.32;2.25;;;;;;;6.96;100.00;101388.94;5144795;27;20031;-52
2022/05/14 01:16:01;;;;;;;3.30;1.33;;;;;;;7.03;100.00;101384.75;5148716;27;20103;-48
2022/05/14 01:18:30;;;;;;;8.05;2.88;;;;;;;7.02;100.00;101390.16;5138194;27;20031;-46
2022/05/14 01:20:57;;;;;;;3.58;2.17;;;;;;;6.97;100.00;101407.25;5138429;27;20404;-47
2022/05/14 01:23:29;;;;;;;4.53;2.58;;;;;;;6.96;100.00;101400.31;5135520;27;20657;-48
2022/05/14 01:26:28;;;;;;;4.28;1.70;;;;;;;6.91;100.00;101397.28;5133097;27;20102;-47
2022/05/14 01:28:57;;;;;;;3.30;2.15;;;;;;;6.81;100.00;101391.22;5145467;27;20082;-47
2022/05/14 01:31:23;;;;;;;5.05;2.55;;;;;;;6.71;100.00;101393.03;5142754;27;20038;-48
2022/05/14 01:33:48;;;;;;;4.40;1.60;;;;;;;6.64;100.00;101387.53;5147416;27;20030;-50
2022/05/14 01:36:14;;;;;;;8.20;2.30;;;;;;;6.63;100.00;101390.28;5147092;27;20031;-50
2022/05/14 01:38:40;;;;;;;6.28;1.80;;;;;;;6.57;100.00;101390.88;5146459;27;20038;-49
2022/05/14 01:41:06;;;;;;;3.67;1.10;;;;;;;6.49;100.00;101388.94;5146488;27;20027;-49
2022/05/14 01:43:31;;;;;;;2.22;1.38;;;;;;;6.37;100.00;101401.44;5147251;27;20029;-49
2022/05/14 01:45:57;;;;;;;3.60;2.35;;;;;;;6.23;100.00;101407.97;5149247;27;20399;-46
2022/05/14 01:48:23;;;;;;;3.22;1.98;;;;;;;6.14;100.00;101414.06;5142761;27;20299;-49
2022/05/14 01:50:48;;;;;;;9.27;2.60;;;;;;;6.09;100.00;101417.16;5137586;27;20129;-48
2022/05/14 01:53:14;;;;;;;4.53;1.02;;;;;;;6.02;100.00;101412.56;5142408;27;20069;-49
2022/05/14 01:55:39;;;;;;;7.68;2.08;;;;;;;5.96;100.00;101419.19;5132672;27;20083;-47
2022/05/14 01:58:36;;;;;;;5.28;1.30;;;;;;;5.91;100.00;101413.47;5138874;27;20038;-48
2022/05/14 02:00:50;;;;;;;6.22;2.47;;;;;;;5.82;100.00;101415.16;5148173;27;20030;-48
2022/05/14 02:03:16;;;;;;;4.38;1.65;;;;;;;5.75;100.00;101419.28;5143216;27;20053;-48
2022/05/14 02:05:41;;;;;;;10.23;1.98;;;;;;;5.70;100.00;101416.22;5133680;27;20475;-46
2022/05/14 02:08:07;;;;;;;1.70;1.58;;;;;;;5.59;100.00;101421.63;5147526;27;20018;-46
2022/05/14 02:10:32;;;;;;;5.03;1.50;;;;;;;5.49;100.00;101426.03;5148072;27;20075;-51
2022/05/14 02:12:57;;;;;;;2.42;1.38;;;;;;;5.39;100.00;101428.63;5147231;27;20677;-48
2022/05/14 02:15:24;;;;;;;3.13;1.35;;;;;;;5.33;100.00;101424.75;5149390;27;20419;-48
2022/05/14 02:17:49;;;;;;;0.73;0.60;;;;;;;5.33;100.00;101424.75;5144548;27;20098;-46
2022/05/14 02:20:16;;;;;;;2.05;0.80;;;;;;;5.33;100.00;101435.25;5145665;27;20117;-49
2022/05/14 02:22:41;;;;;;;5.63;1.85;;;;;;;5.30;100.00;101429.44;5145360;27;20030;-46
2022/05/14 02:25:08;;;;;;;2.28;1.08;;;;;;;5.26;100.00;101428.88;5135593;27;20476;-47
2022/05/14 02:27:33;;;;;;;2.80;1.85;;;;;;;5.21;100.00;101426.66;5139398;27;20122;-49
2022/05/14 02:29:59;;;;;;;2.58;1.60;;;;;;;5.14;100.00;101425.50;5143055;27;20023;-50
2022/05/14 02:32:26;;;;;;;4.68;1.95;;;;;;;5.09;100.00;101432.97;5151568;27;20436;-46
2022/05/14 02:34:54;;;;;;;9.70;2.05;;;;;;;5.04;100.00;101427.28;5151221;27;20671;-50
2022/05/14 02:37:23;;;;;;;5.50;2.22;;;;;;;4.97;100.00;101424.31;5142426;27;20061;-46
2022/05/14 02:39:50;;;;;;;2.53;1.05;;;;;;;4.93;100.00;101428.19;5136985;27;20107;-47
2022/05/14 02:42:16;;;;;;;8.90;1.88;;;;;;;4.90;100.00;101425.81;5142314;27;20502;-47
2022/05/14 02:44:41;;;;;;;2.40;1.20;;;;;;;4.90;100.00;101419.72;5147130;27;20035;-48
2022/05/14 02:47:07;;;;;;;2.25;1.15;;;;;;;4.87;100.00;101420.00;5145962;27;20110;-51
2022/05/14 02:49:32;;;;;;;1.58;1.00;;;;;;;4.80;100.00;101417.03;5151421;27;20543;-47
2022/05/14 02:51:57;;;;;;;4.82;1.35;;;;;;;4.76;100.00;101427.00;5142084;27;20067;-46
2022/05/14 02:54:24;;;;;;;6.68;0.95;;;;;;;4.72;100.00;101422.13;5151125;27;20064;-48
2022/05/14 02:56:49;;;;;;;1.98;1.17;;;;;;;4.63;100.00;101422.91;5146912;27;20530;-50
2022/05/14 02:59:15;;;;;;;7.00;1.13;;;;;;;4.54;100.00;101422.72;5142061;27;20043;-50
2022/05/14 03:01:47;;;;;;;3.50;2.75;;;;;;;4.49;100.00;101414.41;5144341;27;20038;-47
2022/05/14 03:04:14;;;;;;;2.53;0.93;;;;;;;4.45;100.00;101415.59;5150426;27;20038;-48
2022/05/14 03:06:40;;;;;;;4.30;0.95;;;;;;;4.44;100.00;101420.97;5149095;27;20035;-47
2022/05/14 03:09:05;;;;;;;3.78;1.08;;;;;;;4.38;100.00;101412.66;5141105;27;20075;-48
2022/05/14 03:11:32;;;;;;;8.07;1.88;;;;;;;4.41;100.00;101414.19;5143494;27;20095;-47
2022/05/14 03:13:57;;;;;;;1.52;0.73;;;;;;;4.43;100.00;101414.88;5148808;27;20401;-49
2022/05/14 03:16:22;;;;;;;2.38;1.15;;;;;;;4.40;100.00;101420.41;5152737;27;20037;-46
2022/05/14 03:18:47;;;;;;;3.03;1.23;;;;;;;4.37;100.00;101423.28;5151133;27;20060;-47
2022/05/14 03:21:13;;;;;;;2.67;0.80;;;;;;;4.30;100.00;101420.31;5147703;27;20031;-48
2022/05/14 03:23:38;;;;;;;3.65;1.63;;;;;;;4.20;100.00;101423.84;5150271;27;20062;-47
2022/05/14 03:26:04;;;;;;;3.78;1.27;;;;;;;4.12;100.00;101420.06;5142163;27;20035;-49
2022/05/14 03:28:29;;;;;;;4.10;1.60;;;;;;;4.06;100.00;101423.19;5146795;27;20026;-51
2022/05/14 03:30:56;;;;;;;4.22;1.88;;;;;;;4.02;100.00;101421.75;5142118;27;20041;-48
2022/05/14 03:33:22;;;;;;;1.58;1.05;;;;;;;4.03;100.00;101420.81;5150142;27;20033;-48
2022/05/14 03:35:47;;;;;;;3.10;1.33;;;;;;;4.00;100.00;101415.84;5150338;27;20023;-48
2022/05/14 03:38:13;;;;;;;2.08;1.75;;;;;;;3.97;100.00;101417.84;5144260;27;20038;-46
2022/05/14 03:40:38;;;;;;;3.60;1.27;;;;;;;3.97;100.00;101417.84;5144379;27;20055;-46
2022/05/14 03:43:03;;;;;;;6.90;2.00;;;;;;;3.96;100.00;101418.81;5134421;27;20031;-47
2022/05/14 03:45:29;;;;;;;2.65;2.28;;;;;;;3.97;100.00;101425.72;5149033;27;20033;-50
2022/05/14 03:47:54;;;;;;;8.02;2.70;;;;;;;3.94;100.00;101424.19;5145712;27;20019;-50
2022/05/14 03:50:20;;;;;;;14.30;2.22;;;;;;;3.90;100.00;101421.00;5151450;27;20457;-45
2022/05/14 03:52:45;;;;;;;4.80;1.13;;;;;;;3.84;100.00;101418.84;5145960;27;20435;-46
2022/05/14 03:55:10;;;;;;;5.93;2.15;;;;;;;3.78;100.00;101418.53;5147819;27;20492;-50
2022/05/14 03:57:36;;;;;;;7.30;1.67;;;;;;;3.73;100.00;101421.50;5151895;27;20030;-48
2022/05/14 04:00:04;;;;;;;8.60;2.20;;;;;;;3.69;100.00;101414.84;5150843;27;20399;-51
2022/05/14 04:02:29;;;;;;;8.50;2.20;;;;;;;3.70;100.00;101419.97;5151633;27;20123;-48
2022/05/14 04:04:55;;;;;;;7.63;2.17;;;;;;;3.72;100.00;101415.44;5149532;27;20050;-48
2022/05/14 04:07:20;;;;;;;7.72;1.35;;;;;;;3.75;100.00;101419.59;5143937;27;20027;-51
2022/05/14 04:09:45;;;;;;;3.53;2.08;;;;;;;3.79;100.00;101412.31;5142842;27;20108;-48
2022/05/14 04:12:11;;;;;;;10.82;1.70;;;;;;;3.82;100.00;101423.41;5146467;27;20023;-49
2022/05/14 04:14:36;;;;;;;5.45;3.42;;;;;;;3.90;100.00;101423.63;5150089;27;20144;-46
2022/05/14 04:17:02;;;;;;;7.60;1.98;;;;;;;3.97;100.00;101428.34;5144535;27;20031;-48
2022/05/14 04:19:28;;;;;;;4.70;2.00;;;;;;;3.96;100.00;101417.03;5146950;27;20057;-46
2022/05/14 04:21:53;;;;;;;11.20;2.05;;;;;;;3.92;100.00;101420.84;5146781;27;20419;-47
2022/05/14 04:24:19;;;;;;;7.28;2.30;;;;;;;3.87;100.00;101420.38;5149174;27;20129;-47
2022/05/14 04:26:44;;;;;;;5.28;2.78;;;;;;;3.82;100.00;101419.94;5146967;27;20052;-47
2022/05/14 04:29:09;;;;;;;9.25;4.38;;;;;;;3.80;100.00;101424.47;5144620;27;20041;-46
2022/05/14 04:31:35;;;;;;;5.20;2.38;;;;;;;3.85;100.00;101431.03;5141098;27;20265;-49
2022/05/14 04:34:01;;;;;;;6.47;3.22;;;;;;;3.90;100.00;101441.16;5131986;27;20547;-48
2022/05/14 04:36:26;;;;;;;7.45;2.25;;;;;;;3.94;100.00;101437.31;5149733;27;20023;-48
2022/05/14 04:38:52;;;;;;;4.82;2.70;;;;;;;3.99;100.00;101431.69;5139355;27;20027;-46
2022/05/14 04:41:18;;;;;;;7.68;4.38;;;;;;;4.07;100.00;101434.50;5144147;27;20384;-47
2022/05/14 04:43:43;;;;;;;8.13;3.50;;;;;;;4.17;100.00;101439.84;5132420;27;20129;-46
2022/05/14 04:46:09;;;;;;;6.25;2.55;;;;;;;4.21;100.00;101446.50;5148052;27;20617;-46
2022/05/14 04:48:36;;;;;;;11.80;4.30;;;;;;;4.21;100.00;101439.47;5149238;27;20019;-46
2022/05/14 04:51:01;;;;;;;9.50;3.10;;;;;;;4.25;100.00;101443.50;5132088;27;20023;-46
2022/05/14 04:53:27;;;;;;;7.35;3.15;;;;;;;4.33;100.00;101446.31;5143189;27;20497;-49
2022/05/14 04:55:52;;;;;;;10.93;3.30;;;;;;;4.40;100.00;101440.59;5147082;27;20027;-48
2022/05/14 04:58:17;;;;;;;9.05;2.78;;;;;;;4.45;100.00;101439.25;5150714;27;20027;-45
2022/05/14 05:00:43;;;;;;;6.32;3.22;;;;;;;4.51;100.00;101438.72;5149780;27;20046;-48
2022/05/14 05:03:17;;;;;;;8.32;2.80;;;;;;;4.59;100.00;101441.56;5140541;27;20023;-50
2022/05/14 05:05:54;;;;;;;8.70;3.22;;;;;;;4.65;100.00;101442.84;5149732;27;20034;-50
2022/05/14 05:08:21;;;;;;;14.13;3.30;;;;;;;4.70;100.00;101448.53;5141881;27;20034;-48
2022/05/14 05:10:47;;;;;;;12.57;2.70;;;;;;;4.79;100.00;101447.75;5144091;27;20498;-49
2022/05/14 05:13:18;;;;;;;6.85;2.88;;;;;;;4.84;100.00;101449.16;5123603;27;20109;-47
2022/05/14 05:15:44;;;;;;;2.42;2.22;;;;;;;4.89;100.00;101453.06;5137332;27;20038;-47
2022/05/14 05:18:10;;;;;;;4.47;2.38;;;;;;;4.95;100.00;101446.44;5150105;27;20039;-51
2022/05/14 05:20:37;;;;;;;7.60;3.97;;;;;;;5.00;100.00;101446.88;5137701;27;20121;-46
2022/05/14 05:23:04;;;;;;;8.50;4.30;;;;;;;5.05;100.00;101452.56;5140958;27;20080;-51
2022/05/14 05:25:29;;;;;;;9.45;2.58;;;;;;;5.13;100.00;101454.56;5148947;27;20323;-47
2022/05/14 05:27:55;;;;;;;11.55;4.03;;;;;;;5.20;100.00;101455.69;5130447;27;20376;-47
2022/05/14 05:30:21;;;;;;;10.50;3.63;;;;;;;5.29;100.00;101467.22;5142143;27;20076;-47
2022/05/14 05:32:46;;;;;;;10.05;2.95;;;;;;;5.37;100.00;101462.13;5146430;27;20030;-46
2022/05/14 05:35:12;;;;;;;6.85;3.47;;;;;;;5.46;100.00;101474.47;5145359;27;20055;-48
2022/05/14 05:37:37;;;;;;;4.10;3.67;;;;;;;5.56;100.00;101480.59;5147840;27;20450;-48
2022/05/14 05:40:03;;;;;;;5.93;2.72;;;;;;;5.68;100.00;101484.81;5146958;27;20030;-49
2022/05/14 05:42:29;;;;;;;5.60;2.88;;;;;;;5.82;100.00;101494.09;5145474;27;20076;-46
2022/05/14 05:44:55;;;;;;;9.10;3.00;;;;;;;5.97;100.00;101499.03;5145369;27;20026;-47
2022/05/14 05:47:21;;;;;;;4.07;2.20;;;;;;;6.08;100.00;101491.00;5145436;27;20517;-51
2022/05/14 05:49:47;;;;;;;6.95;2.65;;;;;;;6.20;100.00;101492.53;5147600;27;20121;-48
2022/05/14 05:52:12;;;;;;;6.05;3.60;;;;;;;6.32;100.00;101496.72;5145353;27;20630;-47
2022/05/14 05:57:39;;;;;;;12.75;4.45;;;;;;;6.52;100.00;101480.88;5147023;27;20091;-47
2022/05/14 06:00:11;;;;;;;12.35;3.85;;;;;;;6.58;100.00;101484.75;5127330;27;20030;-47
2022/05/14 06:02:38;;;;;;;8.88;2.85;;;;;;;6.64;100.00;101482.41;5146952;27;20387;-47
2022/05/14 06:05:04;;;;;;;7.65;3.40;;;;;;;6.66;100.00;101472.56;5147943;27;20042;-50
2022/05/14 06:07:29;;;;;;;11.77;4.60;;;;;;;6.73;100.00;101481.53;5151445;27;20125;-48
2022/05/14 06:09:55;;;;;;;10.80;4.28;;;;;;;6.83;100.00;101481.53;5148314;27;20046;-49
2022/05/14 06:12:20;;;;;;;6.30;3.20;;;;;;;6.97;100.00;101477.63;5149530;27;20034;-47
2022/05/14 06:14:45;;;;;;;5.70;3.70;;;;;;;7.06;100.00;101475.94;5132405;27;20035;-49
2022/05/14 06:17:11;;;;;;;11.07;3.33;;;;;;;7.14;100.00;101482.13;5149551;27;20036;-48
2022/05/14 06:19:36;;;;;;;9.38;4.70;;;;;;;7.26;100.00;101492.53;5145502;27;20114;-47
2022/05/14 06:22:04;;;;;;;6.82;3.45;;;;;;;7.37;100.00;101495.81;5130535;27;20073;-46
2022/05/14 06:24:29;;;;;;;13.68;3.90;;;;;;;7.49;100.00;101485.91;5145439;27;20037;-46
2022/05/14 06:26:55;;;;;;;7.65;3.70;;;;;;;7.63;100.00;101493.31;5146438;27;20031;-49
2022/05/14 06:29:20;;;;;;;4.72;2.55;;;;;;;7.75;100.00;101488.69;5142828;27;20066;-46
2022/05/14 06:31:45;;;;;;;8.23;3.42;;;;;;;7.90;100.00;101499.56;5143686;27;20424;-48
2022/05/14 06:34:11;;;;;;;3.80;2.50;;;;;;;8.01;100.00;101498.53;5144580;27;20154;-47
2022/05/14 06:36:37;;;;;;;9.63;3.60;;;;;;;8.12;100.00;101500.13;5145757;27;20073;-47
2022/05/14 06:39:02;;;;;;;9.27;3.05;;;;;;;8.26;100.00;101494.28;5147788;27;20470;-47
2022/05/14 06:41:28;;;;;;;5.38;2.33;;;;;;;8.39;100.00;101502.72;5139936;27;20511;-46
2022/05/14 06:43:53;;;;;;;7.13;2.40;;;;;;;8.52;100.00;101497.88;5148381;27;20495;-48
2022/05/14 06:46:18;;;;;;;9.80;3.88;;;;;;;8.63;100.00;101499.44;5144929;27;20043;-46
2022/05/14 06:48:44;;;;;;;8.07;3.03;;;;;;;8.73;100.00;101507.31;5144519;27;20079;-46
2022/05/14 06:51:16;;;;;;;8.70;3.65;;;;;;;8.80;100.00;101503.03;5139782;27;20082;-46
2022/05/14 06:53:42;;;;;;;14.98;3.45;;;;;;;8.87;100.00;101503.25;5145218;27;20034;-46
2022/05/14 06:56:08;;;;;;;12.20;4.63;;;;;;;8.97;100.00;101503.16;5142874;27;20033;-49
2022/05/14 06:58:39;;;;;;;9.43;4.78;;;;;;;9.02;100.00;101496.41;5145900;27;20058;-47
2022/05/14 07:01:05;;;;;;;9.20;4.28;;;;;;;9.05;100.00;101500.56;5142101;27;20058;-49
2022/05/14 07:09:01;;;;;;;5.88;2.30;;;;;;;9.24;100.00;101507.44;5142917;27;20432;-50
2022/05/14 07:11:27;;;;;;;10.68;4.55;;;;;;;9.30;100.00;101498.91;5141439;27;20038;-48
2022/05/14 07:13:53;;;;;;;10.80;4.05;;;;;;;9.54;100.00;101501.66;5144110;27;20033;-46
2022/05/14 07:16:18;;;;;;;16.67;3.42;;;;;;;9.76;100.00;101504.72;5141011;27;20100;-46
2022/05/14 07:18:44;;;;;;;12.07;4.85;;;;;;;10.04;100.00;101507.91;5140603;27;20091;-48
2022/05/14 07:21:09;;;;;;;7.65;3.13;;;;;;;10.19;100.00;101510.78;5138986;27;20510;-49
2022/05/14 07:23:34;;;;;;;8.23;3.35;;;;;;;10.31;100.00;101500.72;5143075;27;20386;-49
2022/05/14 07:26:07;;;;;;;4.60;3.03;;;;;;;10.57;100.00;101501.41;5140770;27;20041;-48
2022/05/14 07:28:34;;;;;;;15.90;3.97;;;;;;;10.79;100.00;101507.88;5141404;27;20499;-49
2022/05/14 07:31:01;;;;;;;9.30;4.45;;;;;;;10.94;100.00;101496.56;5139233;27;20399;-47
2022/05/14 07:33:27;;;;;;;13.40;4.80;;;;;;;11.09;100.00;101486.91;5146154;27;20031;-48
2022/05/14 07:35:53;;;;;;;9.23;3.90;;;;;;;11.21;100.00;101485.56;5144577;27;20029;-47
2022/05/14 07:38:19;;;;;;;16.05;3.45;;;;;;;11.25;100.00;101481.53;5141122;27;20385;-49
2022/05/14 07:40:45;;;;;;;11.77;4.05;;;;;;;11.30;100.00;101479.19;5143307;27;20031;-48
2022/05/14 07:43:17;;;;;;;8.65;3.20;;;;;;;11.39;100.00;101480.00;5144286;27;20467;-48
2022/05/14 07:45:46;;;;;;;16.20;6.00;;;;;;;11.54;100.00;101480.13;5140610;27;20023;-48
2022/05/14 07:48:33;;;;;;;20.15;5.70;;;;;;;11.70;100.00;101473.91;5143189;27;20393;-48
2022/05/14 07:51:00;;;;;;;11.60;3.78;;;;;;;11.83;100.00;101468.03;5139917;27;20483;-49
2022/05/14 07:53:30;;;;;;;9.95;3.40;;;;;;;12.04;100.00;101462.09;5144532;27;20107;-51
2022/05/14 07:55:59;;;;;;;14.20;3.20;;;;;;;12.18;100.00;101450.69;5142969;27;20402;-48
2022/05/14 07:58:25;;;;;;;10.73;2.72;;;;;;;12.25;100.00;101443.66;5144987;27;20359;-51
2022/05/14 08:00:51;;;;;;;13.52;3.03;;;;;;;12.46;100.00;101450.97;5140778;27;20034;-47
2022/05/14 08:03:17;;;;;;;8.68;2.65;;;;;;;12.68;100.00;101451.94;5141775;27;20027;-47
2022/05/14 08:05:42;;;;;;;11.52;3.17;;;;;;;12.91;100.00;101440.38;5142306;27;20041;-51
2022/05/14 08:08:08;;;;;;;10.90;1.40;;;;;;;13.08;100.00;101441.84;5143306;27;20324;-50
2022/05/14 08:10:34;;;;;;;9.27;1.90;;;;;;;13.23;100.00;101426.69;5124348;27;20038;-50
2022/05/14 08:13:00;;;;;;;4.93;1.83;;;;;;;13.46;100.00;101426.59;5122340;27;20022;-53
2022/05/14 08:15:27;;;;;;;5.85;2.10;;;;;;;13.57;100.00;101430.63;5142185;27;20480;-47
2022/05/14 08:17:53;;;;;;;3.53;0.90;;;;;;;13.67;100.00;101430.31;5147463;27;20022;-49
2022/05/14 08:20:19;;;;;;;12.13;2.67;;;;;;;13.87;100.00;101436.69;5125739;27;20500;-47
2022/05/14 08:25:29;;;;;;;8.13;1.92;;;;;;;13.93;100.00;101425.25;5144149;27;20647;-48
2022/05/14 08:27:54;;;;;;;5.75;1.90;;;;;;;14.15;100.00;101425.28;5143445;27;20031;-49
2022/05/14 08:30:23;;;;;;;13.88;3.17;;;;;;;14.34;100.00;101421.94;5143516;27;20140;-50
2022/05/14 08:32:49;;;;;;;6.47;1.48;;;;;;;14.62;100.00;101429.16;5143735;27;20352;-49
2022/05/14 08:35:16;;;;;;;13.88;3.53;;;;;;;14.83;100.00;101415.75;5143071;27;20041;-49
2022/05/14 08:37:41;;;;;;;13.63;2.75;;;;;;;14.95;100.00;101407.22;5137656;27;20030;-49
2022/05/14 08:40:38;;;;;;;7.53;1.90;;;;;;;15.08;100.00;101401.13;5146731;27;20034;-51
2022/05/14 08:43:10;;;;;;;6.13;1.42;;;;;;;15.35;100.00;101402.03;5126945;27;20515;-53
2022/05/14 08:45:37;;;;;;;15.63;3.25;;;;;;;15.41;100.00;101398.56;5146789;27;20031;-51
2022/05/14 08:48:32;;;;;;;3.38;1.38;;;;;;;15.28;100.00;101396.66;5139521;27;20041;-50
2022/05/14 08:51:05;;;;;;;6.25;2.80;;;;;;;15.42;100.00;101395.69;5135301;27;20467;-52
2022/05/14 08:53:34;;;;;;;7.85;1.20;;;;;;;15.59;100.00;101398.00;5143974;27;20112;-47
2022/05/14 08:56:16;;;;;;;11.40;2.10;;;;;;;15.88;100.00;101394.19;5145724;27;20104;-49
2022/05/14 08:58:56;;;;;;;4.55;1.05;;;;;;;16.06;100.00;101383.72;5129881;27;20064;-50
2022/05/14 09:01:28;;;;;;;5.65;1.38;;;;;;;16.22;100.00;101382.47;5143740;27;20502;-51
2022/05/14 09:03:54;;;;;;;16.27;3.13;;;;;;;16.27;100.00;101387.22;5144125;27;20042;-50
2022/05/14 09:06:20;;;;;;;4.32;1.65;;;;;;;16.40;100.00;101383.72;5133226;27;20347;-48
2022/05/14 09:08:45;;;;;;;13.85;2.45;;;;;;;16.29;100.00;101387.84;5144447;27;20459;-51
2022/05/14 09:11:25;;;;;;;9.45;1.25;;;;;;;16.40;100.00;101383.72;5133762;27;20035;-49
2022/05/14 09:13:57;;;;;;;12.20;3.25;;;;;;;16.47;100.00;101371.97;5146047;27;20058;-51
2022/05/14 09:16:31;;;;;;;7.13;1.67;;;;;;;16.61;100.00;101375.44;5145718;27;20031;-49
2022/05/14 09:18:57;;;;;;;5.90;1.63;;;;;;;16.76;100.00;101377.88;5143321;27;20441;-48
2022/05/14 09:21:25;;;;;;;11.20;2.10;;;;;;;16.92;100.00;101376.63;5140634;27;20033;-47
2022/05/14 09:23:59;;;;;;;6.13;0.52;;;;;;;16.95;100.00;101377.00;5139948;27;20034;-49
2022/05/14 09:26:37;;;;;;;11.18;1.33;;;;;;;16.96;100.00;101385.84;5140304;27;20314;-46
2022/05/14 09:29:35;;;;;;;6.13;1.75;;;;;;;16.98;100.00;101383.78;5137977;27;20046;-49
2022/05/14 09:32:12;;;;;;;4.63;1.67;;;;;;;17.15;100.00;101376.94;5138809;27;20114;-50
2022/05/14 09:34:37;;;;;;;2.80;0.55;;;;;;;17.20;100.00;101369.09;5137540;27;20073;-47
2022/05/14 09:37:07;;;;;;;6.65;2.00;;;;;;;17.28;100.00;101369.88;5133262;27;20130;-48
2022/05/14 09:39:32;;;;;;;13.05;1.83;;;;;;;17.25;100.00;101370.31;5139934;27;20118;-46
2022/05/14 09:42:00;;;;;;;7.00;1.17;;;;;;;17.32;100.00;101371.06;5140312;27;20593;-48
2022/05/14 09:44:35;;;;;;;1.35;0.88;;;;;;;17.54;100.00;101376.94;5141643;27;20042;-48
2022/05/14 09:47:12;;;;;;;8.10;1.15;;;;;;;17.80;100.00;101374.13;5139215;27;20034;-50
2022/05/14 09:49:42;;;;;;;5.47;1.75;;;;;;;17.86;100.00;101372.44;5136483;27;20122;-51
2022/05/14 09:52:07;;;;;;;8.50;1.25;;;;;;;17.82;100.00;101374.72;5135165;27;20554;-49
2022/05/14 09:54:41;;;;;;;4.13;1.30;;;;;;;17.54;100.00;101368.91;5139351;27;20035;-50
2022/05/14 09:57:43;;;;;;;6.88;1.25;;;;;;;17.75;100.00;101376.59;5135808;27;20071;-47
2022/05/14 10:00:12;;;;;;;8.00;2.13;;;;;;;17.98;100.00;101370.69;5137565;27;20098;-50
2022/05/14 10:02:49;;;;;;;4.13;1.10;;;;;;;18.10;100.00;101362.75;5137223;27;20029;-49
2022/05/14 10:05:32;;;;;;;6.50;1.42;;;;;;;18.11;100.00;101360.91;5125822;27;20458;-50
2022/05/14 10:08:10;;;;;;;8.30;1.73;;;;;;;18.31;100.00;101365.03;5132219;27;20145;-52
2022/05/14 10:10:58;;;;;;;3.90;1.52;;;;;;;18.53;100.00;101352.03;5139293;27;20818;-48
2022/05/14 10:13:34;;;;;;;8.75;2.35;;;;;;;18.62;100.00;101360.63;5103641;27;20030;-51
2022/05/14 10:16:21;;;;;;;11.02;2.08;;;;;;;18.34;100.00;101362.97;5132170;27;20395;-50
2022/05/14 10:19:07;;;;;;;8.60;1.88;;;;;;;18.52;100.00;101355.75;5140315;27;20062;-47
2022/05/14 10:22:01;;;;;;;4.80;1.30;;;;;;;18.49;100.00;101342.78;5141971;27;20066;-47
2022/05/14 10:27:23;;;;;;;5.85;2.40;;;;;;;18.99;100.00;101359.81;5144102;27;20448;-49
2022/05/14 10:30:15;;;;;;;10.07;2.03;;;;;;;18.97;100.00;101360.03;5140845;27;20027;-46
2022/05/14 10:32:43;;;;;;;8.23;1.42;;;;;;;19.09;100.00;101362.78;5139530;27;20027;-53
2022/05/14 10:35:18;;;;;;;2.97;1.33;;;;;;;19.17;100.00;101352.53;5128970;27;20035;-54
2022/05/14 10:37:48;;;;;;;5.97;1.67;;;;;;;19.00;100.00;101346.16;5127125;27;20031;-51
2022/05/14 10:40:20;;;;;;;9.00;1.65;;;;;;;19.04;100.00;101360.78;5140145;27;20126;-48
2022/05/14 10:42:59;;;;;;;;;;;;;;;19.21;100.00;101361.00;5139242;27;20031;-50
2022/05/14 10:45:39;;;;;;;9.60;2.00;;;;;;;19.30;100.00;101369.53;5120501;27;20010;-52
2022/05/14 10:48:42;;;;;;;3.47;1.20;;;;;;;18.90;100.00;101357.44;5140450;27;20447;-55
2022/05/14 10:51:11;;;;;;;4.30;1.55;;;;;;;18.85;100.00;101357.28;5116795;27;20049;-51
2022/05/14 10:53:40;;;;;;;5.80;3.03;;;;;;;18.85;100.00;101348.41;5140183;27;20152;-48
2022/05/14 10:56:14;;;;;;;12.30;2.15;;;;;;;19.17;100.00;101355.22;5137411;27;20491;-48
2022/05/14 10:58:43;;;;;;;7.25;1.20;;;;;;;19.51;100.00;101350.22;5143451;27;20030;-49
2022/05/14 11:01:26;;;;;;;6.32;1.80;;;;;;;19.82;100.00;101343.75;5142364;27;20090;-51
2022/05/14 11:03:59;;;;;;;7.32;0.85;;;;;;;19.89;100.00;101345.53;5140693;27;20118;-48
2022/05/14 11:06:31;;;;;;;5.03;1.63;;;;;;;20.12;100.00;101333.97;5130095;27;20031;-48
2022/05/14 11:08:57;;;;;;;8.73;1.45;;;;;;;20.21;100.00;101329.88;5133241;27;20023;-53
2022/05/14 11:11:28;;;;;;;7.30;1.42;;;;;;;20.32;100.00;101325.56;5135559;27;20492;-51
2022/05/14 11:13:59;;;;;;;;;;;;;;;20.24;100.00;101337.50;5138628;27;20034;-49
2022/05/14 11:16:35;;;;;;;4.10;1.17;;;;;;;20.21;100.00;101332.56;5146304;27;20379;-50
2022/05/14 11:19:04;;;;;;;10.75;2.67;;;;;;;19.98;100.00;101333.38;5145282;27;20035;-47
2022/05/14 11:21:45;;;;;;;5.30;1.75;;;;;;;20.18;100.00;101330.34;5136411;27;20695;-51
2022/05/14 11:24:14;;;;;;;8.23;2.17;;;;;;;20.59;100.00;101332.09;5142034;27;20026;-49
2022/05/14 11:26:46;;;;;;;9.77;1.52;;;;;;;20.69;100.00;101320.72;5141926;27;20481;-49
2022/05/14 11:29:17;;;;;;;6.53;1.98;;;;;;;20.73;100.00;101321.06;5139495;27;20034;-52
2022/05/14 11:32:04;;;;;;;10.20;3.03;;;;;;;20.94;100.00;101325.00;5143327;27;20119;-49
2022/05/14 11:34:30;;;;;;;8.73;1.90;;;;;;;21.08;100.00;101329.84;5132699;27;20031;-46
2022/05/14 11:36:58;;;;;;;12.50;2.13;;;;;;;21.03;100.00;101321.66;5135561;27;20031;-48
2022/05/14 11:39:30;;;;;;;6.10;1.35;;;;;;;20.96;100.00;101323.72;5138664;27;20034;-47
2022/05/14 11:42:10;;;;;;;7.38;1.15;;;;;;;20.96;100.00;101321.00;5133201;27;20026;-51
2022/05/14 11:44:42;;;;;;;5.75;1.17;;;;;;;21.02;100.00;101320.03;5143317;27;20037;-50
2022/05/14 11:47:22;;;;;;;3.00;1.20;;;;;;;21.19;100.00;101316.56;5138201;27;20031;-49